KHEZ

Hardy-Anders Field Natchez-Adams County Airport

Natchez, Mississippi, USA
METAR KHEZ 240856Z AUTO 33004KT 10SM FEW011 M01/M02 A3009 RMK AO2 SLP194 T10111022 53003 FZRANO
Observed Flight Rules
Jan-24 @ 08:56 UTC (34 minutes ago) Visual Flight Rules
Wind Visibility Clouds
330° at 4 knots 10 miles
  • Few at 1,100' AGL
Temperatures Readings
Current -1°C / 30°F
Dewpoint -2°C / 28°F
Humidity 93%
Altimeter 30.09" Hg
Pressure 1019.4 hPa
Elevation 83
METAR KHEZ 240856Z AUTO 33004KT 10SM FEW011 M01/M02 A3009 RMK AO2 SLP194 T10111022 53003 FZRANO
Observed Flight Rules
Jan-24 @ 08:56 UTC
(34 minutes ago)
VFR
Wind Visibility
330° at 4 knots 10 miles
Clouds
  • Few at 1,100' AGL
Temperature Dewpoint
-1°C / 30°F -2°C / 28°F
Humidity Altimeter Pressure
93% 30.09" Hg 1019.4 hPa